Time;durP1;ratioP1;P1;durP2;ratioP2;P2;SDS_P1;SDS_P2;PMS_P1;PMS_P2;Temp;Humidity;BMP_temperature;BMP_pressure;BME280_temperature;BME280_humidity;BME280_pressure;Samples;Min_cycle;Max_cycle;Signal;HPM_P1;HPM_P2
2022/11/16 00:00:26;;;;;;;13.35;12.05;;;11.60;99.90;;;;;;5074947;28;20020;-73
2022/11/16 00:02:52;;;;;;;12.85;11.75;;;11.70;99.90;;;;;;5074238;28;20129;-74
2022/11/16 00:05:18;;;;;;;12.85;11.75;;;11.60;99.90;;;;;;5075094;28;20070;-74
2022/11/16 00:07:44;;;;;;;14.85;13.35;;;11.60;99.90;;;;;;5074274;28;20028;-73
2022/11/16 00:10:10;;;;;;;13.50;12.20;;;11.60;99.90;;;;;;5073866;28;20017;-73
2022/11/16 00:12:36;;;;;;;15.30;13.70;;;11.60;99.90;;;;;;5074743;28;20086;-74
2022/11/16 00:15:03;;;;;;;14.07;12.65;;;11.60;99.90;;;;;;5061765;28;20082;-73
2022/11/16 00:17:28;;;;;;;14.35;12.95;;;11.60;99.90;;;;;;5073784;28;20028;-74
2022/11/16 00:19:54;;;;;;;13.77;12.40;;;11.60;99.90;;;;;;5075196;28;20054;-74
2022/11/16 00:22:19;;;;;;;13.30;12.10;;;11.70;99.90;;;;;;5074823;28;20066;-73
2022/11/16 00:24:45;;;;;;;14.30;12.90;;;11.70;99.90;;;;;;5074272;28;20035;-73
2022/11/16 00:27:11;;;;;;;13.77;12.55;;;11.60;99.90;;;;;;5059967;28;20066;-74
2022/11/16 00:29:37;;;;;;;14.38;12.98;;;11.70;99.90;;;;;;5073475;28;20048;-74
2022/11/16 00:32:02;;;;;;;14.13;12.73;;;11.60;99.90;;;;;;5073354;28;20033;-74
2022/11/16 00:34:28;;;;;;;14.10;12.50;;;11.60;99.90;;;;;;5074141;28;20045;-74
2022/11/16 00:36:54;;;;;;;15.40;13.80;;;11.60;99.90;;;;;;5072771;28;20484;-73
2022/11/16 00:39:19;;;;;;;14.50;13.07;;;11.60;99.90;;;;;;5073462;28;20063;-73
2022/11/16 00:41:45;;;;;;;14.27;12.85;;;11.60;99.90;;;;;;5072951;28;20047;-75
2022/11/16 00:44:11;;;;;;;13.98;12.57;;;11.60;99.90;;;;;;5072616;28;20024;-74
2022/11/16 00:46:37;;;;;;;13.98;12.57;;;11.60;99.90;;;;;;5073062;28;20017;-73
2022/11/16 00:49:04;;;;;;;14.70;13.25;;;11.60;99.90;;;;;;5073539;28;20032;-73
2022/11/16 00:51:30;;;;;;;15.05;13.55;;;11.70;99.90;;;;;;5067281;28;20465;-74
2022/11/16 00:53:55;;;;;;;17.23;14.63;;;11.60;99.90;;;;;;5065938;28;20035;-75
2022/11/16 00:56:21;;;;;;;13.65;12.48;;;11.60;99.90;;;;;;5073678;28;20016;-74
2022/11/16 00:58:46;;;;;;;16.30;14.70;;;11.60;99.90;;;;;;5072409;28;20024;-74
2022/11/16 01:01:18;;;;;;;13.70;12.48;;;11.70;99.90;;;;;;5072487;28;20030;-75
2022/11/16 01:03:44;;;;;;;14.27;12.98;;;11.70;99.90;;;;;;5073156;28;20476;-74
2022/11/16 01:06:13;;;;;;;15.52;13.95;;;11.70;99.90;;;;;;5072294;28;20021;-73
2022/11/16 01:08:40;;;;;;;14.75;13.25;;;11.70;99.90;;;;;;5072918;28;20368;-73
2022/11/16 01:14:00;;;;;;;14.25;12.95;;;11.70;99.90;;;;;;5062118;28;20499;-74
2022/11/16 01:16:25;;;;;;;14.32;13.13;;;11.70;99.90;;;;;;5069251;28;20025;-74
2022/11/16 01:18:53;;;;;;;14.45;12.85;;;11.70;99.90;;;;;;5055889;28;20035;-74
2022/11/16 01:21:20;;;;;;;13.23;12.02;;;11.70;99.90;;;;;;5056358;28;20025;-73
2022/11/16 01:23:45;;;;;;;14.40;12.70;;;11.70;99.90;;;;;;5063060;28;20112;-73
2022/11/16 01:26:11;;;;;;;14.57;13.02;;;11.70;99.90;;;;;;5063996;28;20048;-74
2022/11/16 01:28:36;;;;;;;14.90;13.40;;;11.60;99.90;;;;;;5067441;28;20064;-73
2022/11/16 01:31:02;;;;;;;15.90;13.60;;;11.70;99.90;;;;;;5073019;28;20048;-73
2022/11/16 01:33:28;;;;;;;14.63;12.88;;;11.70;99.90;;;;;;5071417;28;20039;-73
2022/11/16 01:35:54;;;;;;;15.00;13.48;;;11.80;99.90;;;;;;5058353;28;20025;-74
2022/11/16 01:38:19;;;;;;;16.02;12.85;;;11.80;99.90;;;;;;5072682;28;20421;-74
2022/11/16 01:40:45;;;;;;;14.48;13.13;;;11.80;99.90;;;;;;5071483;28;20361;-74
2022/11/16 01:43:20;;;;;;;13.77;12.57;;;11.80;99.90;;;;;;5072866;28;20551;-74
2022/11/16 01:45:45;;;;;;;15.10;12.55;;;11.90;99.90;;;;;;5071983;28;20112;-73
2022/11/16 01:48:19;;;;;;;14.85;13.43;;;11.80;99.90;;;;;;5071900;28;20108;-73
2022/11/16 01:50:45;;;;;;;15.93;14.43;;;11.80;99.90;;;;;;5071644;28;20043;-73
2022/11/16 01:53:12;;;;;;;15.05;13.65;;;11.90;99.90;;;;;;5059096;28;20103;-74
2022/11/16 01:55:41;;;;;;;17.00;13.82;;;11.80;99.90;;;;;;5071599;28;20025;-73
2022/11/16 01:58:10;;;;;;;14.00;12.77;;;11.80;99.90;;;;;;5072289;28;20021;-74
2022/11/16 02:00:36;;;;;;;14.33;12.90;;;11.70;99.90;;;;;;5072324;28;20024;-73
2022/11/16 02:03:02;;;;;;;16.15;13.88;;;12.20;99.90;;;;;;5071440;28;20067;-73
2022/11/16 02:05:50;;;;;;;14.13;12.77;;;11.70;99.90;;;;;;5072224;28;20024;-73
2022/11/16 02:11:29;;;;;;;14.07;12.77;;;11.70;99.90;;;;;;5071915;28;20449;-73
2022/11/16 02:14:19;;;;;;;15.73;14.05;;;11.60;99.90;;;;;;5073049;28;20468;-74
2022/11/16 02:17:26;;;;;;;15.13;13.63;;;11.60;99.90;;;;;;5071588;28;20024;-74
2022/11/16 02:20:00;;;;;;;15.60;14.02;;;11.60;99.90;;;;;;5072196;28;20035;-74
2022/11/16 02:22:58;;;;;;;14.70;13.38;;;11.60;99.90;;;;;;5071913;28;20043;-73
2022/11/16 02:25:36;;;;;;;14.98;13.57;;;11.60;99.90;;;;;;5035092;28;20029;-74
2022/11/16 02:28:31;;;;;;;15.57;14.00;;;11.60;99.90;;;;;;5065209;28;20033;-75
2022/11/16 02:31:00;;;;;;;14.70;13.40;;;11.60;99.90;;;;;;5059640;28;20445;-74
2022/11/16 02:33:33;;;;;;;14.65;13.18;;;11.60;99.90;;;;;;5071711;28;20091;-75
2022/11/16 02:36:02;;;;;;;13.77;12.23;;;11.60;99.90;;;;;;5072209;28;20365;-74
2022/11/16 02:38:36;;;;;;;15.13;13.63;;;11.50;99.90;;;;;;5070829;28;20081;-74
2022/11/16 02:41:06;;;;;;;15.18;13.77;;;11.50;99.90;;;;;;5072026;28;20460;-74
2022/11/16 02:43:37;;;;;;;;;;;11.50;99.90;;;;;;5071545;28;20045;-74
2022/11/16 02:46:07;;;;;;;18.20;13.85;;;11.50;99.90;;;;;;5058871;28;19908;-73
2022/11/16 02:48:36;;;;;;;14.38;12.85;;;11.50;99.90;;;;;;5071965;28;20086;-73
2022/11/16 02:51:05;;;;;;;14.77;13.32;;;11.50;99.90;;;;;;5071385;28;20016;-74
2022/11/16 02:53:35;;;;;;;15.77;14.13;;;11.50;99.90;;;;;;5072402;28;20035;-74
2022/11/16 02:56:01;;;;;;;14.43;12.55;;;11.50;99.90;;;;;;5072855;28;20031;-73
2022/11/16 02:58:28;;;;;;;14.38;13.10;;;11.50;99.90;;;;;;5071348;28;20036;-73
2022/11/16 03:01:02;;;;;;;12.98;11.52;;;11.40;99.90;;;;;;5071999;28;20107;-73
2022/11/16 03:03:30;;;;;;;13.65;11.73;;;11.40;99.90;;;;;;5072270;28;20081;-75
2022/11/16 03:06:07;;;;;;;13.10;11.90;;;11.40;99.90;;;;;;5071804;28;20031;-73
2022/11/16 03:08:37;;;;;;;12.60;11.30;;;11.30;99.90;;;;;;5071931;28;20032;-73
2022/11/16 03:13:54;;;;;;;12.25;11.02;;;11.40;99.90;;;;;;5073371;28;20456;-74
2022/11/16 03:16:26;;;;;;;11.40;10.30;;;11.30;99.90;;;;;;5073059;28;20102;-73
2022/11/16 03:18:55;;;;;;;10.18;9.27;;;11.30;99.90;;;;;;5071343;28;20036;-74
2022/11/16 03:21:35;;;;;;;11.88;10.77;;;11.30;99.90;;;;;;5071920;28;20024;-74
2022/11/16 03:24:01;;;;;;;11.63;10.43;;;11.20;99.90;;;;;;5074491;28;20033;-74
2022/11/16 03:26:34;;;;;;;10.75;9.88;;;11.20;99.90;;;;;;5061411;28;20120;-74
2022/11/16 03:29:11;;;;;;;10.73;9.82;;;11.20;99.90;;;;;;5061587;28;20027;-75
2022/11/16 03:31:49;;;;;;;12.13;11.02;;;11.10;99.90;;;;;;5075145;28;20024;-74
2022/11/16 03:34:19;;;;;;;11.68;10.57;;;11.20;99.90;;;;;;5061644;28;20396;-74
2022/11/16 03:36:47;;;;;;;13.35;10.48;;;11.20;99.90;;;;;;5075417;28;20108;-74
2022/11/16 03:39:21;;;;;;;10.43;9.50;;;11.20;99.90;;;;;;5061122;28;20542;-74
2022/11/16 03:41:48;;;;;;;9.98;9.07;;;11.10;99.90;;;;;;5073972;28;20037;-74
2022/11/16 03:44:16;;;;;;;9.65;8.65;;;11.20;99.90;;;;;;5074635;28;20027;-73
2022/11/16 03:46:43;;;;;;;13.00;9.40;;;11.10;99.90;;;;;;5073984;28;20028;-73
2022/11/16 03:49:08;;;;;;;11.15;8.85;;;11.50;99.90;;;;;;5074922;28;20017;-73
2022/11/16 03:51:34;;;;;;;10.70;8.18;;;11.10;99.90;;;;;;5075183;28;20353;-73
2022/11/16 03:54:00;;;;;;;8.85;7.95;;;11.10;99.90;;;;;;5074389;28;20500;-74
2022/11/16 03:56:25;;;;;;;10.95;8.48;;;11.10;99.90;;;;;;5074894;28;20028;-74
2022/11/16 03:58:52;;;;;;;8.63;7.80;;;11.10;99.90;;;;;;5075450;28;20028;-74
2022/11/16 04:01:17;;;;;;;9.23;8.23;;;11.00;99.90;;;;;;5074121;28;20115;-73
2022/11/16 04:03:43;;;;;;;8.32;7.28;;;11.00;99.90;;;;;;5074375;28;20554;-74
2022/11/16 04:25:46;;;;;;;12.40;9.32;;;10.90;99.90;;;;;;5066537;28;20028;-74
2022/11/16 04:28:12;;;;;;;10.85;9.65;;;10.80;99.90;;;;;;5067952;28;20403;-73
2022/11/16 04:39:11;;;;;;;15.13;9.48;;;10.80;99.90;;;;;;5060393;28;20082;-73
2022/11/16 04:44:21;;;;;;;11.05;9.95;;;10.80;99.90;;;;;;5073429;28;20028;-73
2022/11/16 04:47:05;;;;;;;14.00;9.75;;;10.70;99.90;;;;;;5073614;28;20385;-72
2022/11/16 04:49:30;;;;;;;10.18;9.13;;;10.90;99.90;;;;;;5060502;28;20020;-74
2022/11/16 04:51:56;;;;;;;9.98;9.02;;;10.80;99.90;;;;;;5073271;28;20028;-73
2022/11/16 04:54:22;;;;;;;18.98;10.27;;;10.80;99.90;;;;;;5073229;28;20021;-73
2022/11/16 04:56:47;;;;;;;12.43;9.52;;;10.70;99.90;;;;;;5073355;28;20522;-73
2022/11/16 04:59:14;;;;;;;10.75;9.23;;;10.70;99.90;;;;;;5073019;28;20081;-74
2022/11/16 05:04:23;;;;;;;9.90;8.43;;;10.60;99.90;;;;;;5058537;28;20059;-74
2022/11/16 05:06:49;;;;;;;13.07;8.93;;;10.60;99.90;;;;;;5073558;28;20028;-73
2022/11/16 05:09:15;;;;;;;15.13;9.60;;;10.60;99.90;;;;;;5073196;28;20024;-73
2022/11/16 05:11:40;;;;;;;12.07;8.27;;;10.50;99.90;;;;;;5072069;28;20021;-75
2022/11/16 05:14:08;;;;;;;13.90;8.48;;;10.50;99.90;;;;;;5072986;28;20358;-73
2022/11/16 05:16:33;;;;;;;10.82;7.93;;;10.50;99.90;;;;;;5072690;28;20119;-74
2022/11/16 05:21:43;;;;;;;14.65;8.00;;;10.50;99.90;;;;;;5059178;28;20909;-74
2022/11/16 05:26:53;;;;;;;12.48;6.38;;;10.50;99.90;;;;;;5055600;28;20078;-73
2022/11/16 05:29:18;;;;;;;16.63;6.60;;;10.50;99.90;;;;;;5074255;28;20377;-74
2022/11/16 05:31:44;;;;;;;8.45;6.03;;;10.40;99.90;;;;;;5072087;28;20459;-75
2022/11/16 05:34:11;;;;;;;12.18;5.45;;;10.30;99.90;;;;;;5071714;28;20037;-74
2022/11/16 05:36:36;;;;;;;9.00;5.45;;;10.40;99.90;;;;;;5072818;28;20116;-73
2022/11/16 05:39:02;;;;;;;12.10;5.00;;;10.30;99.90;;;;;;5072547;28;20039;-74
2022/11/16 05:41:28;;;;;;;11.30;4.85;;;10.30;99.90;;;;;;5068344;28;20032;-73
2022/11/16 05:43:56;;;;;;;10.70;4.72;;;10.20;99.90;;;;;;5080078;28;20571;-72
2022/11/16 05:46:22;;;;;;;12.57;4.95;;;10.20;99.90;;;;;;5076519;28;20515;-73
2022/11/16 05:48:48;;;;;;;6.65;4.13;;;10.10;99.90;;;;;;5081510;28;20028;-72
2022/11/16 05:51:14;;;;;;;6.65;4.25;;;10.00;99.90;;;;;;5078078;28;20349;-73
2022/11/16 05:53:40;;;;;;;11.02;4.43;;;9.90;99.90;;;;;;5081771;28;20464;-73
2022/11/16 05:56:06;;;;;;;8.38;4.60;;;10.60;99.90;;;;;;5068205;28;20039;-73
2022/11/16 05:58:31;;;;;;;10.95;5.20;;;9.80;99.90;;;;;;5050998;28;20028;-74
2022/11/16 06:00:57;;;;;;;9.60;4.20;;;9.70;99.90;;;;;;5058386;28;20055;-73
2022/11/16 06:03:23;;;;;;;7.78;4.20;;;9.70;99.90;;;;;;5059051;28;20385;-73
2022/11/16 06:05:52;;;;;;;6.60;4.95;;;9.70;99.90;;;;;;5054044;28;20033;-73
2022/11/16 06:08:18;;;;;;;8.68;4.93;;;9.60;99.90;;;;;;5052540;28;20029;-73
2022/11/16 06:10:43;;;;;;;11.30;4.20;;;9.50;99.90;;;;;;5052910;28;20676;-74
2022/11/16 06:13:09;;;;;;;7.18;3.85;;;9.50;99.90;;;;;;5053072;28;20028;-73
2022/11/16 06:15:38;;;;;;;9.48;4.28;;;9.50;99.90;;;;;;5055612;28;20029;-74
2022/11/16 06:18:04;;;;;;;7.22;4.10;;;9.40;99.90;;;;;;5054146;28;20020;-74
2022/11/16 06:20:30;;;;;;;8.48;3.60;;;9.30;99.90;;;;;;5053824;28;20027;-74
2022/11/16 06:22:56;;;;;;;8.05;4.28;;;9.40;99.90;;;;;;5054138;28;20033;-74
2022/11/16 06:25:22;;;;;;;10.48;4.45;;;9.20;99.90;;;;;;5052712;28;20028;-73
2022/11/16 06:27:47;;;;;;;11.65;3.97;;;9.20;99.90;;;;;;5050836;28;20108;-73
2022/11/16 06:30:13;;;;;;;10.85;4.43;;;9.20;99.90;;;;;;5055011;28;20123;-74
2022/11/16 06:32:39;;;;;;;8.82;4.07;;;9.20;99.90;;;;;;5055692;28;20053;-73
2022/11/16 06:35:05;;;;;;;11.68;4.13;;;9.10;99.90;;;;;;5052947;28;20116;-74
2022/11/16 06:37:30;;;;;;;15.60;4.47;;;9.10;99.90;;;;;;5052398;28;20021;-73
2022/11/16 06:39:56;;;;;;;13.65;4.43;;;9.00;99.90;;;;;;5055198;28;20074;-74
2022/11/16 06:42:22;;;;;;;10.05;5.10;;;8.90;99.90;;;;;;5065290;28;20527;-75
2022/11/16 06:44:47;;;;;;;13.93;4.53;;;8.90;99.90;;;;;;5070464;28;20017;-73
2022/11/16 06:47:13;;;;;;;7.15;3.75;;;8.90;99.90;;;;;;5071192;28;20025;-72
2022/11/16 06:49:39;;;;;;;10.48;4.40;;;8.90;99.90;;;;;;5069825;28;20031;-73
2022/11/16 06:52:04;;;;;;;11.05;4.93;;;8.80;99.90;;;;;;5070828;28;20020;-74
2022/11/16 06:54:30;;;;;;;9.57;4.18;;;8.80;99.90;;;;;;5070635;28;20021;-75
2022/11/16 06:56:55;;;;;;;12.60;4.53;;;8.80;99.90;;;;;;5070228;28;20488;-71
2022/11/16 06:59:21;;;;;;;9.02;3.25;;;8.70;99.90;;;;;;5074219;28;20013;-74
2022/11/16 07:01:46;;;;;;;9.38;3.58;;;8.70;99.90;;;;;;5073777;28;20100;-73
2022/11/16 07:04:14;;;;;;;12.90;5.10;;;8.60;99.90;;;;;;5073866;28;20029;-74
2022/11/16 07:06:40;;;;;;;13.02;3.90;;;8.60;99.90;;;;;;5074289;28;20049;-73
2022/11/16 07:09:09;;;;;;;9.05;3.75;;;8.60;99.90;;;;;;5074824;28;20031;-73
2022/11/16 07:11:35;;;;;;;10.43;3.20;;;8.60;99.90;;;;;;5071189;28;20021;-73
2022/11/16 07:14:02;;;;;;;9.45;3.38;;;8.60;99.90;;;;;;5075527;28;20033;-73
2022/11/16 07:16:27;;;;;;;11.77;3.47;;;8.60;99.90;;;;;;5074597;28;20036;-73
2022/11/16 07:18:56;;;;;;;5.38;3.55;;;8.60;99.90;;;;;;5074106;28;20024;-73
2022/11/16 07:21:22;;;;;;;9.82;3.95;;;8.50;99.90;;;;;;5074463;28;20020;-73
2022/11/16 07:23:48;;;;;;;9.10;3.72;;;8.50;99.90;;;;;;5074514;28;20380;-73
2022/11/16 07:26:13;;;;;;;7.35;3.55;;;8.50;99.90;;;;;;5071577;28;20020;-73
2022/11/16 07:28:39;;;;;;;9.80;3.90;;;8.50;99.90;;;;;;5069571;28;20409;-73
2022/11/16 07:31:09;;;;;;;9.48;3.95;;;8.50;99.90;;;;;;5080947;28;20126;-73
2022/11/16 07:33:36;;;;;;;;;;;8.50;99.90;;;;;;5084637;28;20021;-72
2022/11/16 07:36:09;;;;;;;10.13;4.05;;;8.50;99.90;;;;;;5081041;28;19908;-73
2022/11/16 07:38:35;;;;;;;7.30;4.10;;;8.50;99.90;;;;;;5075968;28;20048;-74
2022/11/16 07:41:06;;;;;;;5.68;3.75;;;8.60;99.90;;;;;;5080208;28;20419;-72
2022/11/16 07:43:35;;;;;;;8.50;4.03;;;8.70;99.90;;;;;;5074130;28;20039;-72
2022/11/16 07:46:02;;;;;;;7.10;4.05;;;8.60;99.90;;;;;;5072422;28;20112;-74
2022/11/16 07:48:30;;;;;;;9.07;3.92;;;8.70;99.90;;;;;;5074473;28;20078;-74
2022/11/16 07:51:00;;;;;;;7.20;4.32;;;8.80;99.90;;;;;;5073343;28;20044;-76
2022/11/16 07:53:26;;;;;;;12.93;4.30;;;8.70;99.90;;;;;;5076698;28;20418;-76
2022/11/16 07:55:52;;;;;;;9.13;4.03;;;8.80;99.90;;;;;;5077536;28;20035;-74
2022/11/16 07:58:18;;;;;;;10.65;3.90;;;8.80;99.90;;;;;;5081661;28;20028;-73
2022/11/16 08:00:44;;;;;;;7.57;3.83;;;10.00;99.90;;;;;;5083672;28;20088;-74
2022/11/16 08:03:09;;;;;;;7.90;4.50;;;8.90;99.90;;;;;;5080573;28;20523;-74
2022/11/16 08:05:35;;;;;;;8.85;3.55;;;8.90;99.90;;;;;;5086162;28;20035;-71
2022/11/16 08:08:00;;;;;;;10.50;3.72;;;9.00;99.90;;;;;;5080936;28;20032;-74
2022/11/16 08:10:26;;;;;;;13.55;3.65;;;9.00;99.90;;;;;;5082907;28;20028;-74
2022/11/16 08:12:53;;;;;;;9.25;3.70;;;9.10;99.90;;;;;;5083216;28;20031;-73
2022/11/16 08:15:19;;;;;;;7.25;3.17;;;9.10;99.90;;;;;;5081720;28;20032;-74
2022/11/16 08:17:44;;;;;;;11.35;3.58;;;9.20;99.90;;;;;;5072577;28;20051;-74
2022/11/16 08:20:10;;;;;;;9.30;3.40;;;9.20;99.90;;;;;;5071682;28;20373;-74
2022/11/16 08:22:36;;;;;;;8.63;2.85;;;9.20;99.90;;;;;;5072904;28;20045;-74
2022/11/16 08:25:01;;;;;;;6.20;2.60;;;9.20;99.90;;;;;;5070208;28;20020;-74
2022/11/16 08:27:27;;;;;;;13.00;2.85;;;9.30;99.90;;;;;;5070344;28;20082;-74
2022/11/16 08:29:53;;;;;;;14.57;4.13;;;9.40;99.90;;;;;;5073601;28;20070;-74
2022/11/16 08:32:18;;;;;;;6.05;2.75;;;9.40;99.90;;;;;;5074207;28;20112;-75
2022/11/16 08:34:44;;;;;;;23.35;4.10;;;9.40;99.90;;;;;;5074102;28;20041;-74
2022/11/16 08:37:10;;;;;;;13.18;3.65;;;9.40;99.90;;;;;;5080029;28;20131;-74
2022/11/16 08:39:36;;;;;;;9.82;3.83;;;9.50;99.90;;;;;;5079793;28;20056;-74
2022/11/16 08:42:01;;;;;;;13.77;3.08;;;9.60;99.90;;;;;;5083155;28;20063;-74
2022/11/16 08:44:27;;;;;;;11.73;3.25;;;9.60;99.90;;;;;;5079048;28;20085;-74
2022/11/16 08:46:53;;;;;;;15.43;4.50;;;9.60;99.90;;;;;;5089235;28;20016;-73
2022/11/16 08:49:19;;;;;;;9.05;3.63;;;9.70;99.90;;;;;;5089365;28;20021;-75
2022/11/16 08:51:44;;;;;;;8.52;2.90;;;9.60;99.90;;;;;;5086939;28;20468;-74
2022/11/16 08:54:10;;;;;;;13.55;3.88;;;9.70;99.90;;;;;;5083144;28;20107;-73
2022/11/16 08:56:35;;;;;;;10.77;3.55;;;9.70;99.90;;;;;;5078327;28;20027;-74
2022/11/16 08:59:01;;;;;;;9.02;3.15;;;9.70;99.90;;;;;;5083414;28;20015;-72
2022/11/16 09:01:29;;;;;;;6.63;3.30;;;9.80;99.90;;;;;;5077993;28;20031;-70
2022/11/16 09:03:55;;;;;;;8.18;3.10;;;9.80;99.90;;;;;;5082556;28;20024;-70
2022/11/16 09:06:22;;;;;;;9.23;3.10;;;9.80;99.90;;;;;;5080180;28;20058;-74
2022/11/16 09:08:48;;;;;;;20.35;4.35;;;9.90;99.90;;;;;;5081637;28;20028;-74
2022/11/16 09:11:17;;;;;;;10.32;3.70;;;9.90;99.90;;;;;;5080769;28;20017;-75
2022/11/16 09:13:44;;;;;;;7.15;3.63;;;10.00;99.90;;;;;;5079599;28;20043;-74
2022/11/16 09:16:09;;;;;;;13.38;3.72;;;10.00;99.90;;;;;;5082973;28;20166;-74
2022/11/16 09:18:38;;;;;;;9.73;3.83;;;10.10;99.90;;;;;;5078265;28;20049;-75
2022/11/16 09:21:04;;;;;;;9.07;4.07;;;10.10;99.90;;;;;;5078819;28;20465;-73
2022/11/16 09:23:29;;;;;;;13.85;4.55;;;10.10;99.90;;;;;;5078395;28;20111;-74
2022/11/16 09:25:55;;;;;;;12.85;4.80;;;10.20;99.90;;;;;;5069497;28;20025;-74
2022/11/16 09:28:21;;;;;;;12.95;3.88;;;10.10;99.90;;;;;;5069177;28;20086;-74
2022/11/16 09:30:49;;;;;;;11.45;3.88;;;10.20;99.90;;;;;;5090333;28;20062;-75
2022/11/16 09:33:15;;;;;;;10.07;4.05;;;10.20;99.90;;;;;;5091901;28;20024;-74
2022/11/16 09:35:41;;;;;;;14.93;3.50;;;10.20;99.90;;;;;;5090150;28;20511;-73
2022/11/16 09:38:08;;;;;;;10.10;3.90;;;10.20;99.90;;;;;;5091661;28;20124;-76
2022/11/16 09:40:40;;;;;;;8.05;3.58;;;10.30;99.90;;;;;;5088319;28;20116;-76
2022/11/16 09:43:09;;;;;;;11.25;3.60;;;10.30;99.90;;;;;;5092688;28;20035;-73
2022/11/16 09:45:54;;;;;;;12.00;3.60;;;10.30;99.90;;;;;;5088430;28;20468;-73
2022/11/16 09:48:21;;;;;;;8.20;3.17;;;10.40;99.90;;;;;;5091778;28;20031;-73
2022/11/16 09:50:54;;;;;;;10.38;3.10;;;10.50;99.90;;;;;;5087652;28;20028;-73
2022/11/16 09:53:47;;;;;;;4.30;2.63;;;10.50;99.90;;;;;;5082161;28;20103;-74
2022/11/16 09:56:25;;;;;;;6.72;2.95;;;10.50;99.90;;;;;;5080596;28;20033;-74
2022/11/16 09:59:09;;;;;;;8.70;3.05;;;10.60;99.90;;;;;;5084484;28;20081;-74
2022/11/16 10:01:54;;;;;;;11.10;3.05;;;10.60;99.90;;;;;;5076416;28;20021;-74
2022/11/16 10:05:16;;;;;;;12.48;3.20;;;10.70;99.90;;;;;;5077651;28;20112;-75
2022/11/16 10:07:59;;;;;;;9.95;3.22;;;10.60;99.90;;;;;;4990350;28;20035;-74
2022/11/16 10:10:33;;;;;;;12.18;2.92;;;10.70;99.90;;;;;;4989561;28;20157;-74
2022/11/16 10:13:23;;;;;;;22.05;3.30;;;10.70;99.90;;;;;;5042514;28;20086;-75
2022/11/16 10:16:19;;;;;;;12.57;2.70;;;10.80;99.90;;;;;;5066863;28;20052;-74
2022/11/16 10:18:59;;;;;;;11.13;3.45;;;10.80;99.90;;;;;;5070429;28;20036;-75
2022/11/16 10:21:46;;;;;;;6.80;2.27;;;10.80;99.90;;;;;;5070071;28;20476;-76
2022/11/16 10:24:33;;;;;;;10.25;3.20;;;10.90;99.90;;;;;;5069335;28;20028;-72
2022/11/16 10:27:15;;;;;;;18.73;3.05;;;11.00;99.90;;;;;;5068967;28;20021;-73
2022/11/16 10:30:16;;;;;;;7.97;2.70;;;11.00;99.90;;;;;;5070260;28;20487;-73
2022/11/16 10:32:58;;;;;;;14.23;3.10;;;11.10;99.90;;;;;;5070048;28;20081;-72
2022/11/16 10:35:35;;;;;;;8.00;2.22;;;11.10;99.90;;;;;;5073502;28;20052;-74
2022/11/16 10:38:04;;;;;;;23.10;4.15;;;11.20;99.90;;;;;;5081365;28;20541;-74
2022/11/16 10:40:36;;;;;;;7.35;2.53;;;11.20;99.90;;;;;;5078082;28;20071;-75
2022/11/16 10:43:11;;;;;;;9.55;2.42;;;11.20;99.90;;;;;;5075469;28;20035;-73
2022/11/16 10:45:56;;;;;;;9.35;2.75;;;11.30;99.90;;;;;;5074054;28;20028;-74
2022/11/16 10:48:40;;;;;;;13.27;3.22;;;11.30;99.90;;;;;;5074714;28;20025;-73
2022/11/16 10:51:08;;;;;;;5.40;2.22;;;11.30;99.90;;;;;;5077975;28;20020;-73
2022/11/16 10:53:42;;;;;;;5.15;2.13;;;11.30;99.90;;;;;;5090979;28;20115;-74
2022/11/16 10:56:20;;;;;;;9.98;2.60;;;11.40;99.90;;;;;;5075115;28;20028;-73
2022/11/16 10:58:54;;;;;;;6.45;2.47;;;11.40;99.90;;;;;;5075348;28;20115;-73
2022/11/16 11:01:50;;;;;;;8.13;3.35;;;11.50;99.90;;;;;;5074196;28;20016;-74
2022/11/16 11:04:17;;;;;;;12.35;2.60;;;11.50;99.90;;;;;;5073698;28;20035;-74
2022/11/16 11:06:45;;;;;;;7.85;2.40;;;11.50;99.90;;;;;;5083807;28;20055;-73
2022/11/16 11:09:31;;;;;;;6.43;2.83;;;11.60;99.90;;;;;;5084912;28;20080;-74
2022/11/16 11:12:38;;;;;;;16.42;2.78;;;11.60;99.90;;;;;;5087879;28;20085;-73
2022/11/16 11:15:10;;;;;;;13.18;2.85;;;11.60;99.90;;;;;;5085386;28;20029;-74
2022/11/16 11:17:43;;;;;;;9.98;2.25;;;11.70;99.90;;;;;;5089664;28;20111;-74
2022/11/16 11:20:15;;;;;;;9.32;2.78;;;11.70;99.90;;;;;;5086312;28;20024;-73
2022/11/16 11:22:57;;;;;;;8.82;2.78;;;11.80;99.90;;;;;;5089839;28;20574;-73
2022/11/16 11:25:33;;;;;;;11.30;2.67;;;11.80;99.90;;;;;;5083969;28;20040;-74
2022/11/16 11:28:04;;;;;;;10.52;2.72;;;11.80;99.90;;;;;;5076208;28;20031;-74
2022/11/16 11:30:31;;;;;;;10.38;2.45;;;11.90;99.90;;;;;;5073584;28;20016;-74
2022/11/16 11:32:57;;;;;;;12.57;2.67;;;11.80;99.90;;;;;;5064117;28;20365;-74
2022/11/16 11:35:29;;;;;;;7.07;2.50;;;11.90;99.90;;;;;;5069012;28;20411;-73
2022/11/16 11:37:59;;;;;;;6.28;1.92;;;12.00;99.90;;;;;;5062703;28;20040;-73
2022/11/16 11:40:27;;;;;;;8.50;2.50;;;12.00;99.90;;;;;;5074347;28;20070;-73
2022/11/16 11:43:04;;;;;;;11.80;2.33;;;12.00;99.90;;;;;;5074034;28;20132;-74
2022/11/16 11:45:48;;;;;;;10.88;2.08;;;12.30;99.90;;;;;;5068280;28;20033;-73
2022/11/16 11:48:28;;;;;;;6.13;2.00;;;12.00;99.90;;;;;;5068865;28;20100;-74
2022/11/16 11:51:03;;;;;;;5.95;1.95;;;12.10;99.90;;;;;;5071725;28;20478;-73
2022/11/16 11:53:38;;;;;;;14.00;2.50;;;12.20;99.90;;;;;;5071356;28;20021;-74
2022/11/16 11:56:04;;;;;;;7.03;2.88;;;12.20;99.90;;;;;;5075300;28;20422;-75
2022/11/16 11:58:34;;;;;;;12.77;3.33;;;12.20;99.90;;;;;;5072628;28;20028;-74
2022/11/16 12:01:27;;;;;;;11.40;3.08;;;12.30;99.90;;;;;;5074548;28;20385;-73
2022/11/16 12:04:21;;;;;;;9.40;2.35;;;12.30;99.90;;;;;;5071149;28;20130;-73
2022/11/16 12:07:07;;;;;;;8.98;2.35;;;12.30;99.90;;;;;;5072825;28;20370;-74
2022/11/16 12:10:02;;;;;;;5.38;2.10;;;12.40;99.90;;;;;;5075473;28;20385;-74
2022/11/16 12:12:40;;;;;;;7.70;2.45;;;12.60;99.90;;;;;;5073986;28;20476;-74
2022/11/16 12:15:24;;;;;;;10.27;2.30;;;12.60;99.90;;;;;;5072501;28;20104;-74
2022/11/16 12:18:27;;;;;;;10.23;2.13;;;12.60;99.90;;;;;;5072065;28;20070;-75
2022/11/16 12:21:12;;;;;;;6.90;1.90;;;12.70;99.90;;;;;;5069472;28;20423;-75
2022/11/16 12:24:23;;;;;;;6.90;2.10;;;12.60;99.90;;;;;;5073874;28;20043;-72
2022/11/16 12:26:57;;;;;;;12.85;2.58;;;12.60;99.90;;;;;;5076299;28;20020;-74
2022/11/16 12:29:30;;;;;;;4.65;1.63;;;12.50;99.90;;;;;;5072105;28;20096;-74
2022/11/16 12:32:15;;;;;;;6.28;1.95;;;12.50;99.90;;;;;;5071732;28;20461;-74
2022/11/16 12:35:15;;;;;;;7.38;2.00;;;12.50;99.90;;;;;;5069387;28;20528;-73
2022/11/16 12:37:54;;;;;;;6.55;1.80;;;12.50;99.90;;;;;;5072731;28;20047;-74
2022/11/16 12:40:25;;;;;;;7.30;1.98;;;12.50;99.90;;;;;;5073489;28;20020;-73
2022/11/16 12:42:56;;;;;;;10.93;2.45;;;12.50;99.90;;;;;;5072945;28;20051;-74
2022/11/16 12:45:48;;;;;;;9.43;2.10;;;12.60;99.90;;;;;;5085442;28;20048;-73
2022/11/16 12:48:51;;;;;;;3.72;1.73;;;12.60;99.90;;;;;;5071662;28;20024;-74
2022/11/16 12:51:41;;;;;;;8.50;2.00;;;12.60;99.90;;;;;;5072430;28;20020;-75
2022/11/16 12:54:09;;;;;;;8.05;2.15;;;12.50;99.90;;;;;;5089357;28;20052;-74
2022/11/16 12:57:03;;;;;;;7.25;2.45;;;12.50;99.90;;;;;;5089635;28;20028;-75
2022/11/16 12:59:54;;;;;;;6.88;2.42;;;12.40;99.90;;;;;;5076231;28;20016;-74
2022/11/16 13:02:45;;;;;;;7.88;2.13;;;12.40;99.90;;;;;;5090158;28;20032;-75
2022/11/16 13:05:34;;;;;;;5.32;1.75;;;12.40;99.90;;;;;;5071395;28;20537;-75
2022/11/16 13:08:13;;;;;;;7.57;1.90;;;12.40;99.90;;;;;;5089691;28;20024;-75
2022/11/16 13:10:44;;;;;;;11.10;2.10;;;12.50;99.90;;;;;;5090337;28;20535;-74
2022/11/16 13:13:15;;;;;;;7.57;2.40;;;12.50;99.90;;;;;;5088395;28;20028;-74
2022/11/16 13:15:41;;;;;;;4.72;1.52;;;12.60;99.90;;;;;;5091200;28;20016;-74
2022/11/16 13:18:13;;;;;;;13.82;2.85;;;12.60;99.90;;;;;;5088070;28;20480;-73
2022/11/16 13:20:47;;;;;;;8.25;1.90;;;12.60;99.90;;;;;;5091147;28;20020;-74
2022/11/16 13:23:24;;;;;;;8.50;1.83;;;12.70;99.90;;;;;;5088972;28;20043;-74
2022/11/16 13:25:59;;;;;;;7.72;1.70;;;12.80;99.90;;;;;;5082800;28;20392;-75
2022/11/16 13:28:32;;;;;;;7.68;1.50;;;12.80;99.90;;;;;;5072679;28;20052;-74
2022/11/16 13:31:11;;;;;;;8.30;2.13;;;12.80;99.90;;;;;;5074961;28;20024;-74
2022/11/16 13:33:46;;;;;;;6.50;1.67;;;12.80;99.90;;;;;;5074113;28;20062;-75
2022/11/16 13:36:45;;;;;;;5.90;2.10;;;12.70;99.90;;;;;;5073660;28;20392;-74
2022/11/16 13:39:52;;;;;;;6.63;1.67;;;12.70;99.90;;;;;;5026727;28;20058;-73
2022/11/16 13:42:17;;;;;;;5.18;1.50;;;12.60;99.90;;;;;;5043261;28;20044;-75
2022/11/16 13:44:43;;;;;;;9.07;1.60;;;12.50;99.90;;;;;;5072554;28;20449;-74
2022/11/16 13:47:29;;;;;;;8.70;2.45;;;12.40;99.90;;;;;;5074747;28;20107;-75
2022/11/16 13:50:04;;;;;;;5.65;1.83;;;12.40;99.90;;;;;;5074562;28;20032;-76